Archival Weather

Pemba

Pemba, Mozambique (FQPB)

Report from: Saturday, April 1, 2023 12:00 AM CAT
Current time: Monday, June 17, 2024 12:20 PM CAT

Current weather – Weather history – Daily summaries
Weather forecast

Temperature25.0°C (77.0°F)
Dew point24.0°C (75.2°F)
Winds 6 kts (3.1 m/s, 6.9 mph) West-Southwest (240°)
Visibility3.7 mi. (6 km)
Clouds Scattered clouds 1,800 ft. (549 m)
Few clouds with cumulonimbus 2,500 ft. (762 m)
Ceiling: Broken clouds 9,000 ft. (2,743 m)
Altimeter29.88 in.Hg (1012 mB)
Relative humidity94 %
Density altitude1,599 ft. (487 m)
Remarks Cumulonimbus clouds observed
Flight conditions Marginal Visual Meteorological Conditions
Raw dataFQPB 312200Z 24006KT 6000 SCT018 FEW025CB BKN090 25/24 Q1012 RMK RA CB TO E/SE/S
An error has occurred. This application may no longer respond until reloaded. Reload 🗙